| time (UTC) | temp F | wind direction | speed knots | gust knots | rain 1hr in | rain 24hr in | rain mn in | humidity % | barometer mb |
| 20260510130647 | 55 | 303 | 0.0 | 0.9 | 0.00 | 0.00 | 0.00 | 99 | 995.4 |
| 20260510130145 | 55 | 302 | 0.0 | 0.0 | 0.00 | 0.00 | 0.00 | 99 | 995.3 |
| 20260510125641 | 55 | 308 | 0.0 | 0.0 | 0.00 | 0.00 | 0.00 | 99 | 995.4 |
| 20260510125137 | 54 | 312 | 0.9 | 0.9 | 0.00 | 0.00 | 0.00 | 99 | 995.3 |
| 20260510124634 | 54 | 256 | 0.9 | 0.9 | 0.00 | 0.00 | 0.00 | 99 | 995.3 |
| 20260510124131 | 53 | 261 | 0.0 | 0.0 | 0.00 | 0.00 | 0.00 | 99 | 995.3 |
| 20260510123627 | 53 | 248 | 0.9 | 0.9 | 0.00 | 0.00 | 0.00 | 99 | 995.4 |
| 20260510123123 | 53 | 262 | 0.0 | 0.9 | 0.00 | 0.00 | 0.00 | 99 | 995.5 |
| 20260510122619 | 54 | 284 | 0.0 | 0.0 | 0.00 | 0.00 | 0.00 | 99 | 995.2 |
| 20260510122115 | 54 | 282 | 0.0 | 0.0 | 0.00 | 0.00 | 0.00 | 99 | 995.1 |
| 20260510121612 | 53 | 260 | 0.0 | 0.0 | 0.00 | 0.00 | 0.00 | 99 | 994.9 |
| 20260510121109 | 53 | 217 | 0.0 | 0.0 | 0.00 | 0.00 | 0.00 | 99 | 995.1 |
| 20260510120607 | 52 | 241 | 0.0 | 0.0 | 0.00 | 0.00 | 0.00 | 99 | 995.0 |
| 20260510115559 | 52 | 259 | 0.0 | 0.0 | 0.00 | 0.00 | 0.00 | 99 | 994.8 |
| 20260510115056 | 52 | 236 | 0.9 | 1.7 | 0.00 | 0.00 | 0.00 | 99 | 994.4 |
| 20260510114552 | 52 | 261 | 0.9 | 0.9 | 0.00 | 0.00 | 0.00 | 99 | 994.4 |
| 20260510114048 | 52 | 246 | 1.7 | 1.7 | 0.00 | 0.00 | 0.00 | 99 | 994.2 |
| 20260510113543 | 52 | 259 | 0.9 | 0.9 | 0.00 | 0.00 | 0.00 | 99 | 994.3 |
| 20260510113041 | 52 | 260 | 0.0 | 0.9 | 0.00 | 0.00 | 0.00 | 99 | 994.3 |
| 20260510112538 | 52 | 186 | 0.0 | 0.9 | 0.00 | 0.00 | 0.00 | 99 | 994.1 |
| 20260510112034 | 52 | 247 | 0.0 | 0.0 | 0.00 | 0.00 | 0.00 | 99 | 994.1 |
| 20260510111531 | 52 | 244 | 0.0 | 0.0 | 0.00 | 0.00 | 0.00 | 99 | 994.1 |
| 20260510111027 | 52 | 242 | 0.0 | 0.0 | 0.00 | 0.00 | 0.00 | 99 | 993.9 |
| 20260510110523 | 52 | 251 | 0.0 | 0.9 | 0.00 | 0.00 | 0.00 | 99 | 993.9 |
| 20260510110020 | 52 | 259 | 0.0 | 0.0 | 0.00 | 0.00 | 0.00 | 99 | 994.2 |
| 20260510105515 | 52 | 299 | 0.0 | 0.0 | 0.00 | 0.00 | 0.00 | 99 | 994.0 |
| 20260510105010 | 52 | 300 | 0.0 | 0.0 | 0.00 | 0.00 | 0.00 | 99 | 994.2 |
| 20260510104507 | 51 | 284 | 0.0 | 0.9 | 0.00 | 0.00 | 0.00 | 99 | 994.3 |
| 20260510104003 | 51 | 243 | 0.0 | 0.0 | 0.00 | 0.00 | 0.00 | 99 | 994.3 |
| 20260510103501 | 51 | 252 | 0.0 | 0.0 | 0.00 | 0.00 | 0.00 | 99 | 994.3 |
| 20260510102956 | 51 | 288 | 0.0 | 0.0 | 0.00 | 0.00 | 0.00 | 99 | 994.1 |
| 20260510102452 | 51 | 289 | 0.0 | 0.0 | 0.00 | 0.00 | 0.00 | 99 | 994.0 |
| 20260510101949 | 51 | 291 | 0.0 | 0.0 | 0.00 | 0.00 | 0.00 | 99 | 993.6 |
| 20260510101447 | 51 | 258 | 0.0 | 0.0 | 0.00 | 0.00 | 0.00 | 99 | 994.0 |
| 20260510100945 | 51 | 246 | 0.0 | 0.0 | 0.00 | 0.00 | 0.00 | 99 | 993.8 |
| 20260510100441 | 51 | 248 | 0.0 | 0.0 | 0.00 | 0.00 | 0.00 | 99 | 993.8 |
| 20260510095937 | 51 | 247 | 0.0 | 0.0 | 0.00 | 0.00 | 0.00 | 99 | 993.7 |
| 20260510095433 | 51 | 242 | 0.0 | 0.9 | 0.00 | 0.00 | 0.00 | 99 | 993.6 |
| 20260510094932 | 51 | 261 | 0.0 | 0.0 | 0.00 | 0.00 | 0.00 | 99 | 993.4 |
| 20260510094427 | 51 | 281 | 0.0 | 0.0 | 0.00 | 0.00 | 0.00 | 99 | 993.6 |
| 20260510093923 | 51 | 258 | 0.0 | 0.0 | 0.00 | 0.00 | 0.00 | 99 | 993.6 |
| 20260510093418 | 51 | 245 | 0.9 | 0.9 | 0.00 | 0.00 | 0.00 | 99 | 993.5 |
| 20260510092915 | 51 | 286 | 0.9 | 0.9 | 0.00 | 0.00 | 0.00 | 99 | 993.4 |
| 20260510092413 | 51 | 209 | 0.0 | 0.0 | 0.00 | 0.00 | 0.00 | 99 | 993.1 |
| 20260510091913 | 51 | 265 | 0.0 | 0.0 | 0.00 | 0.00 | 0.00 | 99 | 993.4 |
| 20260510091410 | 51 | 266 | 0.0 | 0.0 | 0.00 | 0.00 | 0.00 | 99 | 993.5 |
| 20260510090907 | 51 | 266 | 0.0 | 0.9 | 0.00 | 0.00 | 0.00 | 99 | 993.3 |
| 20260510090403 | 51 | 320 | 0.0 | 0.0 | 0.00 | 0.00 | 0.00 | 99 | 993.2 |
| 20260510085859 | 51 | 6 | 0.0 | 0.9 | 0.00 | 0.00 | 0.00 | 99 | 993.2 |
| 20260510085354 | 51 | 299 | 0.0 | 0.0 | 0.00 | 0.00 | 0.00 | 99 | 993.2 |
| 20260510084849 | 51 | 312 | 0.0 | 0.0 | 0.00 | 0.00 | 0.00 | 99 | 993.5 |
| 20260510084347 | 51 | 313 | 0.0 | 0.0 | 0.00 | 0.00 | 0.00 | 99 | 993.4 |
| 20260510083844 | 51 | 309 | 0.0 | 0.0 | 0.00 | 0.00 | 0.00 | 99 | 993.6 |
| 20260510083340 | 51 | 312 | 0.0 | 0.0 | 0.00 | 0.00 | 0.00 | 99 | 993.4 |
| 20260510082836 | 51 | 320 | 0.0 | 0.0 | 0.00 | 0.00 | 0.00 | 99 | 993.7 |
| 20260510082334 | 51 | 323 | 0.0 | 0.0 | 0.00 | 0.00 | 0.00 | 99 | 993.4 |
| 20260510081832 | 51 | 323 | 0.0 | 0.0 | 0.00 | 0.00 | 0.00 | 99 | 993.5 |
| 20260510081329 | 51 | 323 | 0.0 | 0.9 | 0.00 | 0.00 | 0.00 | 99 | 993.6 |
| 20260510080825 | 51 | 312 | 0.0 | 0.0 | 0.00 | 0.00 | 0.00 | 99 | 993.6 |
| 20260510080319 | 51 | 317 | 0.9 | 0.9 | 0.00 | 0.00 | 0.00 | 99 | 993.3 |
| 20260510075817 | 51 | 325 | 1.7 | 1.7 | 0.00 | 0.00 | 0.00 | 99 | 993.4 |
| 20260510075314 | 51 | 347 | 0.0 | 0.0 | 0.00 | 0.00 | 0.00 | 99 | 993.1 |
| 20260510074811 | 51 | 313 | 1.7 | 1.7 | 0.00 | 0.00 | 0.00 | 99 | 993.2 |
| 20260510074308 | 51 | 329 | 1.7 | 1.7 | 0.00 | 0.00 | 0.00 | 99 | 993.4 |
| 20260510073804 | 50 | 320 | 0.0 | 0.0 | 0.00 | 0.00 | 0.00 | 99 | 992.9 |
| 20260510073300 | 50 | 320 | 0.0 | 0.0 | 0.00 | 0.00 | 0.00 | 99 | 992.9 |
| 20260510072755 | 50 | 321 | 0.0 | 0.0 | 0.00 | 0.00 | 0.00 | 99 | 992.9 |
| 20260510072252 | 50 | 321 | 0.0 | 0.0 | 0.00 | 0.00 | 0.00 | 99 | 992.7 |
| 20260510071749 | 50 | 320 | 0.0 | 0.0 | 0.00 | 0.00 | 0.00 | 99 | 992.8 |
| 20260510071245 | 50 | 320 | 0.0 | 0.0 | 0.00 | 0.00 | 0.00 | 99 | 992.8 |
| 20260510070744 | 50 | 320 | 0.0 | 0.0 | 0.00 | 0.00 | 0.00 | 99 | 993.0 |
| 20260510070240 | 50 | 321 | 0.0 | 0.0 | 0.00 | 0.00 | 0.00 | 99 | 992.9 |
| 20260510065735 | 50 | 323 | 0.9 | 0.9 | 0.00 | 0.00 | 0.00 | 99 | 993.0 |
| 20260510065232 | 50 | 320 | 0.9 | 0.9 | 0.00 | 0.00 | 0.00 | 99 | 992.9 |
| 20260510064728 | 50 | 321 | 0.0 | 0.9 | 0.00 | 0.00 | 0.00 | 99 | 993.0 |
| 20260510064226 | 50 | 326 | 0.0 | 0.0 | 0.00 | 0.00 | 0.00 | 99 | 992.8 |
| 20260510063722 | 50 | 332 | 1.7 | 1.7 | 0.00 | 0.00 | 0.00 | 99 | 993.0 |
| 20260510063218 | 50 | 322 | 0.9 | 0.9 | 0.00 | 0.00 | 0.00 | 99 | 992.8 |
| 20260510062715 | 50 | 322 | 0.9 | 0.9 | 0.00 | 0.00 | 0.00 | 99 | 992.9 |
| 20260510062212 | 50 | 318 | 0.0 | 0.9 | 0.00 | 0.00 | 0.00 | 99 | 992.9 |
| 20260510061707 | 50 | 300 | 0.9 | 0.9 | 0.00 | 0.00 | 0.00 | 99 | 992.3 |
| 20260510061204 | 50 | 275 | 0.0 | 0.0 | 0.00 | 0.00 | 0.00 | 99 | 992.6 |
| 20260510060701 | 50 | 248 | 0.0 | 0.0 | 0.00 | 0.00 | 0.00 | 99 | 992.4 |
| 20260510060157 | 50 | 248 | 0.0 | 0.0 | 0.00 | 0.00 | 0.00 | 99 | 992.5 |
| 20260510055653 | 50 | 247 | 0.0 | 0.0 | 0.00 | 0.00 | 0.00 | 99 | 992.6 |
| 20260510055152 | 50 | 248 | 0.0 | 0.0 | 0.00 | 0.00 | 0.00 | 99 | 992.6 |
| 20260510054647 | 50 | 248 | 0.0 | 0.0 | 0.00 | 0.00 | 0.00 | 99 | 992.6 |
| 20260510054143 | 50 | 248 | 0.0 | 0.0 | 0.00 | 0.00 | 0.00 | 99 | 992.6 |
| 20260510053642 | 50 | 247 | 0.0 | 0.0 | 0.00 | 0.00 | 0.00 | 99 | 992.9 |
| 20260510053139 | 50 | 248 | 0.0 | 0.0 | 0.00 | 0.00 | 0.00 | 99 | 992.8 |
| 20260510052635 | 50 | 248 | 0.0 | 0.0 | 0.00 | 0.00 | 0.00 | 99 | 992.7 |
| 20260510052131 | 50 | 247 | 0.0 | 0.0 | 0.00 | 0.00 | 0.00 | 99 | 992.6 |
| 20260510051627 | 50 | 247 | 0.0 | 0.0 | 0.00 | 0.00 | 0.00 | 99 | 992.6 |
| 20260510051124 | 50 | 248 | 0.0 | 0.0 | 0.00 | 0.00 | 0.00 | 99 | 992.6 |
| 20260510050621 | 50 | 247 | 0.0 | 0.0 | 0.00 | 0.00 | 0.00 | 99 | 992.8 |
| 20260510050118 | 50 | 247 | 0.0 | 0.0 | 0.00 | 0.00 | 0.00 | 99 | 992.7 |
| 20260510045615 | 50 | 247 | 0.0 | 0.0 | 0.00 | 0.00 | 0.00 | 99 | 992.8 |
| 20260510045111 | 50 | 247 | 0.0 | 0.0 | 0.00 | 0.00 | 0.00 | 99 | 992.9 |
| 20260510044608 | 49 | 247 | 0.0 | 0.0 | 0.00 | 0.00 | 0.00 | 99 | 993.0 |
| 20260510044105 | 49 | 247 | 0.0 | 0.0 | 0.00 | 0.00 | 0.00 | 99 | 993.0 |
| 20260510043600 | 49 | 247 | 0.0 | 0.0 | 0.00 | 0.00 | 0.00 | 99 | 992.9 |
| 20260510043056 | 49 | 247 | 0.0 | 0.0 | 0.00 | 0.00 | 0.00 | 99 | 993.0 |
| 20260510042555 | 48 | 247 | 0.0 | 0.0 | 0.00 | 0.00 | 0.00 | 99 | 993.0 |
| 20260510042051 | 49 | 247 | 0.0 | 0.0 | 0.00 | 0.00 | 0.00 | 99 | 992.9 |
| 20260510041548 | 49 | 247 | 0.0 | 0.0 | 0.00 | 0.00 | 0.00 | 99 | 992.9 |
| 20260510041045 | 49 | 247 | 0.0 | 0.0 | 0.00 | 0.00 | 0.00 | 99 | 993.0 |
| 20260510040542 | 49 | 247 | 0.0 | 0.0 | 0.00 | 0.00 | 0.00 | 99 | 993.0 |
| 20260510040038 | 49 | 247 | 0.0 | 0.0 | 0.00 | 0.17 | 0.17 | 99 | 992.8 |
| 20260510035535 | 50 | 247 | 0.0 | 0.0 | 0.00 | 0.17 | 0.17 | 99 | 993.1 |
| 20260510035034 | 50 | 247 | 0.0 | 0.0 | 0.00 | 0.17 | 0.17 | 99 | 993.1 |
| 20260510034533 | 50 | 247 | 0.0 | 0.0 | 0.00 | 0.17 | 0.17 | 99 | 993.2 |
| 20260510034029 | 50 | 247 | 0.0 | 0.0 | 0.00 | 0.17 | 0.17 | 99 | 993.1 |
| 20260510033525 | 50 | 247 | 0.0 | 0.0 | 0.00 | 0.17 | 0.17 | 99 | 993.0 |
| 20260510033023 | 50 | 247 | 0.0 | 0.0 | 0.00 | 0.17 | 0.17 | 99 | 992.8 |
| 20260510032519 | 50 | 247 | 0.0 | 0.0 | 0.00 | 0.17 | 0.17 | 99 | 992.9 |
| 20260510032015 | 50 | 247 | 0.0 | 0.0 | 0.00 | 0.17 | 0.17 | 99 | 993.0 |
| 20260510031510 | 50 | 247 | 0.0 | 0.9 | 0.00 | 0.17 | 0.17 | 99 | 992.9 |
| 20260510031006 | 50 | 247 | 0.0 | 0.0 | 0.00 | 0.17 | 0.17 | 99 | 992.6 |
| 20260510030502 | 50 | 247 | 0.0 | 0.0 | 0.00 | 0.17 | 0.17 | 99 | 992.5 |
| 20260510025959 | 50 | 247 | 0.0 | 0.0 | 0.00 | 0.17 | 0.17 | 99 | 992.7 |
| 20260510025456 | 50 | 247 | 0.0 | 0.0 | 0.00 | 0.17 | 0.17 | 99 | 992.7 |
| 20260510024954 | 50 | 247 | 0.0 | 0.0 | 0.00 | 0.17 | 0.17 | 99 | 992.6 |
| 20260510024450 | 50 | 247 | 0.0 | 0.0 | 0.00 | 0.17 | 0.17 | 99 | 992.8 |
| 20260510023946 | 50 | 247 | 0.0 | 0.0 | 0.00 | 0.17 | 0.17 | 99 | 992.7 |
| 20260510023443 | 50 | 247 | 0.0 | 0.9 | 0.00 | 0.17 | 0.17 | 99 | 992.6 |
| 20260510022939 | 50 | 247 | 0.0 | 0.0 | 0.00 | 0.17 | 0.17 | 99 | 992.7 |
| 20260510022439 | 51 | 247 | 0.0 | 0.0 | 0.00 | 0.17 | 0.17 | 99 | 992.6 |
| 20260510021938 | 51 | 247 | 0.0 | 0.9 | 0.00 | 0.17 | 0.17 | 99 | 992.7 |
| 20260510021436 | 51 | 247 | 0.0 | 0.0 | 0.00 | 0.17 | 0.17 | 99 | 992.5 |
| 20260510020932 | 51 | 247 | 0.0 | 0.0 | 0.00 | 0.17 | 0.17 | 99 | 992.6 |
| 20260510020427 | 51 | 247 | 0.0 | 0.0 | 0.00 | 0.17 | 0.17 | 99 | 992.5 |
| 20260510015923 | 51 | 247 | 0.0 | 0.0 | 0.00 | 0.17 | 0.17 | 99 | 992.5 |
| 20260510015419 | 51 | 247 | 0.0 | 0.0 | 0.00 | 0.17 | 0.17 | 99 | 992.4 |
| 20260510014914 | 51 | 247 | 0.0 | 0.0 | 0.00 | 0.17 | 0.17 | 99 | 992.3 |
| 20260510014412 | 51 | 247 | 0.0 | 0.0 | 0.00 | 0.17 | 0.17 | 99 | 992.3 |
| 20260510013908 | 51 | 247 | 0.0 | 0.0 | 0.00 | 0.17 | 0.17 | 99 | 992.3 |
| 20260510013403 | 52 | 247 | 0.0 | 0.0 | 0.00 | 0.17 | 0.17 | 99 | 992.3 |
| 20260510012858 | 52 | 247 | 0.0 | 0.0 | 0.00 | 0.17 | 0.17 | 99 | 992.3 |
| 20260510012354 | 52 | 247 | 0.0 | 0.0 | 0.00 | 0.17 | 0.17 | 99 | 992.3 |
| 20260510011848 | 52 | 247 | 0.0 | 0.0 | 0.00 | 0.17 | 0.17 | 99 | 992.4 |
| 20260510011344 | 52 | 247 | 0.0 | 0.0 | 0.00 | 0.17 | 0.17 | 99 | 992.2 |
| 20260510010840 | 53 | 247 | 0.0 | 0.0 | 0.00 | 0.17 | 0.17 | 99 | 992.2 |
| 20260510010338 | 53 | 247 | 0.0 | 0.0 | 0.00 | 0.17 | 0.17 | 99 | 992.3 |
| 20260510005834 | 53 | 247 | 0.0 | 0.0 | 0.00 | 0.17 | 0.17 | 99 | 992.3 |
| 20260510005331 | 53 | 247 | 0.0 | 0.9 | 0.00 | 0.17 | 0.17 | 99 | 992.2 |
| 20260510004828 | 53 | 247 | 0.0 | 0.0 | 0.00 | 0.17 | 0.17 | 99 | 992.0 |
| 20260510004326 | 53 | 247 | 0.0 | 0.0 | 0.00 | 0.17 | 0.17 | 99 | 991.7 |
| 20260510003823 | 53 | 247 | 0.0 | 0.0 | 0.00 | 0.17 | 0.17 | 99 | 991.8 |
| 20260510003320 | 54 | 247 | 0.0 | 0.0 | 0.00 | 0.17 | 0.17 | 99 | 991.9 |
| 20260510002819 | 54 | 246 | 0.0 | 0.0 | 0.00 | 0.17 | 0.17 | 99 | 991.7 |
| 20260510002316 | 54 | 246 | 0.0 | 0.0 | 0.00 | 0.17 | 0.17 | 99 | 991.9 |
| 20260510001813 | 54 | 247 | 0.0 | 0.0 | 0.00 | 0.17 | 0.17 | 99 | 992.0 |
| 20260510001311 | 55 | 247 | 0.0 | 0.0 | 0.00 | 0.17 | 0.17 | 99 | 991.7 |
| 20260510000806 | 55 | 246 | 0.0 | 0.0 | 0.00 | 0.17 | 0.17 | 99 | 991.6 |
| 20260510000305 | 55 | 262 | 0.0 | 0.9 | 0.00 | 0.17 | 0.17 | 99 | 991.8 |
| 20260509235801 | 56 | 247 | 0.0 | 0.0 | 0.00 | 0.17 | 0.17 | 99 | 991.7 |
| 20260509235258 | 56 | 295 | 0.0 | 0.0 | 0.00 | 0.17 | 0.17 | 99 | 991.9 |
| 20260509234753 | 56 | 297 | 0.0 | 0.0 | 0.00 | 0.17 | 0.17 | 99 | 991.9 |
| 20260509234250 | 56 | 303 | 0.0 | 0.0 | 0.00 | 0.17 | 0.17 | 99 | 991.9 |
| 20260509233749 | 57 | 221 | 0.0 | 0.0 | 0.00 | 0.17 | 0.17 | 99 | 991.8 |
| 20260509233246 | 57 | 222 | 0.9 | 1.7 | 0.00 | 0.17 | 0.17 | 99 | 991.7 |
| 20260509232742 | 57 | 234 | 0.0 | 0.9 | 0.00 | 0.17 | 0.17 | 99 | 991.8 |
| 20260509232239 | 57 | 245 | 0.0 | 0.0 | 0.00 | 0.17 | 0.17 | 98 | 992.1 |
| 20260509231735 | 57 | 227 | 0.0 | 0.0 | 0.00 | 0.17 | 0.17 | 98 | 991.9 |
| 20260509231233 | 57 | 227 | 0.0 | 0.0 | 0.00 | 0.17 | 0.17 | 98 | 991.7 |
| 20260509230730 | 57 | 227 | 0.0 | 0.0 | 0.00 | 0.17 | 0.17 | 98 | 991.7 |
| 20260509230227 | 57 | 227 | 0.9 | 0.9 | 0.00 | 0.17 | 0.17 | 97 | 991.9 |
| 20260509225722 | 57 | 233 | 0.9 | 0.9 | 0.00 | 0.17 | 0.17 | 97 | 991.9 |
| 20260509225218 | 57 | 234 | 0.0 | 0.9 | 0.00 | 0.17 | 0.17 | 96 | 991.8 |
| 20260509224714 | 58 | 234 | 0.0 | 0.9 | 0.00 | 0.17 | 0.17 | 96 | 991.7 |
| 20260509224211 | 58 | 239 | 0.0 | 0.0 | 0.00 | 0.17 | 0.17 | 95 | 991.7 |
| 20260509223708 | 59 | 248 | 0.0 | 0.0 | 0.00 | 0.17 | 0.17 | 95 | 991.7 |
| 20260509223205 | 59 | 252 | 0.0 | 0.0 | 0.00 | 0.17 | 0.17 | 96 | 992.0 |
| 20260509222702 | 59 | 264 | 0.0 | 0.9 | 0.00 | 0.17 | 0.17 | 96 | 991.7 |
| 20260509222158 | 58 | 264 | 0.0 | 0.0 | 0.00 | 0.17 | 0.17 | 96 | 991.7 |
| 20260509221653 | 58 | 265 | 0.0 | 0.0 | 0.00 | 0.17 | 0.17 | 96 | 991.9 |
| 20260509221149 | 58 | 266 | 0.0 | 0.0 | 0.00 | 0.17 | 0.17 | 97 | 991.8 |
| 20260509220646 | 58 | 266 | 0.0 | 0.0 | 0.00 | 0.17 | 0.17 | 97 | 991.6 |
| 20260509220142 | 58 | 267 | 0.0 | 0.0 | 0.00 | 0.17 | 0.17 | 97 | 991.5 |
| 20260509215638 | 58 | 266 | 0.0 | 0.0 | 0.00 | 0.17 | 0.17 | 96 | 991.4 |
| 20260509215134 | 58 | 271 | 0.0 | 0.0 | 0.00 | 0.17 | 0.17 | 96 | 991.6 |
| 20260509214632 | 58 | 271 | 0.0 | 0.0 | 0.00 | 0.17 | 0.17 | 96 | 991.7 |
| 20260509214128 | 58 | 272 | 0.0 | 0.9 | 0.00 | 0.17 | 0.17 | 96 | 991.6 |
| 20260509213625 | 58 | 322 | 0.0 | 0.0 | 0.00 | 0.17 | 0.17 | 98 | 991.6 |
| 20260509213121 | 58 | 276 | 0.9 | 0.9 | 0.00 | 0.17 | 0.17 | 98 | 991.6 |
| 20260509212618 | 58 | 290 | 0.0 | 0.0 | 0.00 | 0.17 | 0.17 | 99 | 991.6 |
| 20260509212110 | 58 | 290 | 0.0 | 0.0 | 0.00 | 0.17 | 0.17 | 99 | 991.8 |
| 20260509211606 | 57 | 289 | 0.0 | 0.0 | 0.00 | 0.17 | 0.17 | 99 | 991.8 |
| 20260509211103 | 58 | 289 | 0.0 | 0.0 | 0.00 | 0.17 | 0.17 | 99 | 991.6 |
| 20260509210559 | 58 | 288 | 0.0 | 0.0 | 0.00 | 0.17 | 0.17 | 99 | 992.0 |
| 20260509210056 | 57 | 287 | 0.0 | 0.9 | 0.00 | 0.17 | 0.17 | 99 | 991.8 |
| 20260509205550 | 58 | 308 | 0.0 | 0.0 | 0.00 | 0.17 | 0.17 | 99 | 991.9 |
| 20260509205045 | 58 | 299 | 0.0 | 0.0 | 0.00 | 0.17 | 0.17 | 99 | 991.8 |
| 20260509204542 | 58 | 286 | 0.0 | 0.0 | 0.00 | 0.17 | 0.17 | 99 | 991.9 |
| 20260509204038 | 57 | 285 | 0.0 | 0.0 | 0.00 | 0.17 | 0.17 | 99 | 992.0 |
| 20260509203534 | 57 | 354 | 0.0 | 0.0 | 0.00 | 0.17 | 0.17 | 99 | 991.7 |
| 20260509203033 | 57 | 24 | 0.9 | 0.9 | 0.00 | 0.17 | 0.17 | 99 | 991.8 |
| 20260509202527 | 57 | 317 | 0.0 | 0.9 | 0.00 | 0.17 | 0.17 | 99 | 992.3 |
| 20260509202023 | 56 | 323 | 0.9 | 0.9 | 0.00 | 0.17 | 0.17 | 99 | 992.2 |
| 20260509201518 | 56 | 324 | 0.9 | 0.9 | 0.00 | 0.17 | 0.17 | 99 | 991.9 |
| 20260509201016 | 55 | 346 | 0.0 | 0.9 | 0.00 | 0.17 | 0.17 | 99 | 991.9 |
| 20260509200515 | 55 | 346 | 0.0 | 0.0 | 0.00 | 0.17 | 0.17 | 99 | 991.9 |
| 20260509200013 | 55 | 18 | 0.9 | 0.9 | 0.00 | 0.17 | 0.17 | 99 | 992.0 |
| 20260509195508 | 55 | 340 | 0.0 | 0.0 | 0.00 | 0.17 | 0.17 | 99 | 992.0 |
| 20260509195008 | 55 | 324 | 0.0 | 0.9 | 0.00 | 0.17 | 0.17 | 99 | 992.3 |
| 20260509194504 | 56 | 335 | 0.0 | 0.0 | 0.00 | 0.17 | 0.17 | 99 | 992.3 |
| 20260509194001 | 55 | 332 | 0.0 | 0.0 | 0.07 | 0.17 | 0.17 | 99 | 992.1 |
| 20260509193500 | 55 | 335 | 0.0 | 0.9 | 0.07 | 0.17 | 0.17 | 99 | 992.4 |
| 20260509192957 | 55 | 357 | 0.0 | 0.9 | 0.00 | 0.16 | 0.16 | 99 | 992.5 |
| 20260509192454 | 55 | 324 | 0.0 | 0.9 | 0.05 | 0.16 | 0.16 | 99 | 992.8 |
| 20260509191948 | 55 | 345 | 0.0 | 0.9 | 0.07 | 0.15 | 0.15 | 99 | 992.8 |
| 20260509191444 | 55 | 322 | 0.9 | 0.9 | 0.07 | 0.15 | 0.15 | 99 | 992.8 |
| 20260509190940 | 55 | 324 | 0.0 | 0.9 | 0.00 | 0.14 | 0.14 | 99 | 992.8 |
| 20260509190437 | 55 | 330 | 0.0 | 0.9 | 0.00 | 0.14 | 0.14 | 99 | 992.8 |
| 20260509185935 | 55 | 328 | 0.0 | 0.0 | 0.07 | 0.14 | 0.14 | 99 | 993.0 |
| 20260509185432 | 55 | 331 | 0.0 | 0.9 | 0.12 | 0.14 | 0.14 | 99 | 993.1 |
| 20260509184929 | 55 | 318 | 0.0 | 0.0 | 0.12 | 0.13 | 0.13 | 99 | 993.3 |
| 20260509184427 | 55 | 321 | 0.0 | 0.9 | 0.12 | 0.12 | 0.12 | 99 | 993.4 |
| 20260509183923 | 55 | 320 | 0.9 | 0.9 | 0.05 | 0.11 | 0.11 | 99 | 993.3 |
| 20260509183417 | 55 | 310 | 0.0 | 0.0 | 0.00 | 0.10 | 0.10 | 99 | 993.4 |
| 20260509182914 | 55 | 310 | 0.0 | 0.0 | 0.00 | 0.10 | 0.10 | 99 | 993.5 |
| 20260509182411 | 55 | 315 | 0.9 | 0.9 | 0.00 | 0.10 | 0.10 | 99 | 993.2 |
| 20260509181908 | 55 | 306 | 0.0 | 0.0 | 0.00 | 0.10 | 0.10 | 99 | 993.3 |
| 20260509181406 | 56 | 305 | 0.0 | 0.9 | 0.00 | 0.10 | 0.10 | 99 | 993.4 |
| 20260509180902 | 56 | 301 | 0.0 | 0.9 | 0.00 | 0.10 | 0.10 | 99 | 993.3 |
| 20260509180358 | 57 | 224 | 0.0 | 0.9 | 0.00 | 0.10 | 0.10 | 99 | 993.5 |
| 20260509175855 | 56 | 222 | 0.0 | 0.0 | 0.00 | 0.10 | 0.10 | 99 | 993.5 |
| 20260509175351 | 56 | 186 | 0.0 | 0.0 | 0.07 | 0.10 | 0.10 | 99 | 993.7 |
| 20260509174848 | 56 | 185 | 0.0 | 0.0 | 0.07 | 0.10 | 0.10 | 99 | 993.7 |
| 20260509174344 | 56 | 173 | 0.0 | 0.0 | 0.00 | 0.09 | 0.09 | 99 | 993.6 |
| 20260509173840 | 56 | 291 | 0.0 | 0.0 | 0.05 | 0.09 | 0.09 | 99 | 993.5 |
| 20260509173335 | 56 | 290 | 0.0 | 0.0 | 0.05 | 0.09 | 0.09 | 98 | 993.3 |
| 20260509172831 | 56 | 291 | 0.0 | 0.9 | 0.07 | 0.08 | 0.08 | 98 | 993.4 |
| 20260509172328 | 56 | 286 | 0.0 | 0.0 | 0.07 | 0.08 | 0.08 | 98 | 993.7 |
| 20260509171824 | 56 | 287 | 0.0 | 0.9 | 0.05 | 0.07 | 0.07 | 97 | 993.4 |
| 20260509171320 | 57 | 246 | 0.0 | 0.9 | 0.12 | 0.07 | 0.07 | 97 | 993.4 |
| 20260509170817 | 57 | 246 | 0.0 | 0.9 | 0.07 | 0.06 | 0.06 | 97 | 993.4 |
| 20260509170313 | 57 | 246 | 0.0 | 0.0 | 0.05 | 0.05 | 0.05 | 97 | 993.3 |
| 20260509165812 | 57 | 246 | 0.0 | 0.0 | 0.05 | 0.05 | 0.05 | 96 | 993.1 |
| 20260509165307 | 57 | 246 | 0.0 | 0.0 | 0.00 | 0.04 | 0.04 | 96 | 993.2 |
| 20260509164803 | 57 | 246 | 0.0 | 0.0 | 0.00 | 0.04 | 0.04 | 95 | 993.1 |
| 20260509164300 | 58 | 246 | 0.0 | 0.0 | 0.00 | 0.04 | 0.04 | 97 | 993.0 |
| 20260509163756 | 58 | 246 | 0.0 | 0.0 | 0.00 | 0.04 | 0.04 | 96 | 993.2 |
| 20260509163253 | 57 | 246 | 0.9 | 0.9 | 0.00 | 0.04 | 0.04 | 96 | 993.5 |
| 20260509162752 | 58 | 247 | 0.0 | 0.9 | 0.00 | 0.04 | 0.04 | 96 | 993.3 |
| 20260509162245 | 58 | 248 | 0.0 | 0.0 | 0.07 | 0.04 | 0.04 | 96 | 993.4 |
| 20260509161742 | 57 | 248 | 0.0 | 0.0 | 0.07 | 0.04 | 0.04 | 96 | 993.5 |
| 20260509161238 | 57 | 233 | 0.9 | 1.7 | 0.00 | 0.03 | 0.03 | 95 | 993.7 |
| 20260509160733 | 57 | 236 | 0.9 | 0.9 | 0.05 | 0.03 | 0.03 | 95 | 993.5 |
| 20260509160230 | 58 | 238 | 0.0 | 0.9 | 0.07 | 0.02 | 0.02 | 94 | 993.9 |
| 20260509155724 | 58 | 244 | 1.7 | 1.7 | 0.07 | 0.02 | 0.02 | 93 | 994.0 |
| 20260509155221 | 58 | 245 | 0.9 | 0.9 | 0.00 | 0.01 | 0.01 | 92 | 994.0 |
| 20260509154717 | 59 | 248 | 1.7 | 1.7 | 0.00 | 0.01 | 0.01 | 91 | 994.0 |
| 20260509154215 | 59 | 248 | 0.9 | 0.9 | 0.07 | 0.01 | 0.01 | 90 | 994.1 |
| 20260509153712 | 59 | 225 | 2.6 | 2.6 | 0.07 | 0.01 | 0.01 | 90 | 994.0 |
| 20260509153208 | 59 | 238 | 0.9 | 0.9 | 0.00 | 0.00 | 0.00 | 92 | 994.1 |
| 20260509152704 | 59 | 239 | 0.9 | 1.7 | 0.00 | 0.00 | 0.00 | 91 | 994.2 |
| 20260509152201 | 59 | 247 | 0.9 | 0.9 | 0.00 | 0.00 | 0.00 | 91 | 993.9 |
| 20260509151658 | 60 | 256 | 2.6 | 4.3 | 0.00 | 0.00 | 0.00 | 90 | 994.0 |
| 20260509151155 | 60 | 267 | 0.9 | 0.9 | 0.00 | 0.00 | 0.00 | 89 | 994.0 |
| 20260509150653 | 60 | 240 | 0.0 | 0.0 | 0.00 | 0.00 | 0.00 | 89 | 994.0 |
| 20260509150151 | 59 | 250 | 1.7 | 1.7 | 0.00 | 0.00 | 0.00 | 88 | 993.8 |
| 20260509145647 | 60 | 187 | 0.9 | 1.7 | 0.00 | 0.00 | 0.00 | 87 | 993.8 |
| 20260509145142 | 60 | 229 | 1.7 | 1.7 | 0.00 | 0.00 | 0.00 | 86 | 993.9 |
| 20260509144639 | 60 | 239 | 0.0 | 0.9 | 0.00 | 0.00 | 0.00 | 87 | 994.0 |
| 20260509144136 | 59 | 222 | 0.9 | 0.9 | 0.00 | 0.00 | 0.00 | 86 | 993.8 |
| 20260509143633 | 59 | 262 | 2.6 | 4.3 | 0.00 | 0.00 | 0.00 | 86 | 993.8 |
| 20260509143131 | 59 | 247 | 1.7 | 1.7 | 0.00 | 0.00 | 0.00 | 86 | 994.1 |
| 20260509142626 | 59 | 244 | 2.6 | 2.6 | 0.00 | 0.00 | 0.00 | 85 | 993.6 |
| 20260509142123 | 59 | 231 | 0.9 | 0.9 | 0.00 | 0.00 | 0.00 | 85 | 993.4 |
| 20260509141619 | 59 | 252 | 0.9 | 1.7 | 0.00 | 0.00 | 0.00 | 85 | 993.5 |
| 20260509141115 | 59 | 255 | 0.9 | 0.9 | 0.00 | 0.00 | 0.00 | 84 | 993.7 |
| 20260509140612 | 59 | 219 | 1.7 | 1.7 | 0.00 | 0.00 | 0.00 | 84 | 993.6 |
| 20260509140110 | 59 | 231 | 0.9 | 1.7 | 0.00 | 0.00 | 0.00 | 84 | 993.4 |
| 20260509135607 | 59 | 212 | 0.9 | 1.7 | 0.00 | 0.00 | 0.00 | 85 | 993.5 |
| 20260509135105 | 59 | 238 | 1.7 | 1.7 | 0.00 | 0.00 | 0.00 | 84 | 993.5 |
| 20260509134601 | 59 | 258 | 1.7 | 1.7 | 0.00 | 0.00 | 0.00 | 84 | 993.2 |
| 20260509134059 | 59 | 192 | 0.9 | 0.9 | 0.00 | 0.00 | 0.00 | 84 | 993.4 |
| 20260509133556 | 59 | 231 | 1.7 | 2.6 | 0.00 | 0.00 | 0.00 | 83 | 993.4 |
| 20260509133053 | 58 | 205 | 1.7 | 1.7 | 0.00 | 0.00 | 0.00 | 84 | 993.3 |
| 20260509132551 | 58 | 223 | 1.7 | 1.7 | 0.00 | 0.00 | 0.00 | 85 | 993.3 |
| 20260509132049 | 58 | 226 | 0.9 | 1.7 | 0.00 | 0.00 | 0.00 | 86 | 993.7 |
| 20260509131545 | 57 | 157 | 0.9 | 1.7 | 0.00 | 0.00 | 0.00 | 85 | 993.2 |
| 20260509131042 | 57 | 199 | 0.0 | 0.0 | 0.00 | 0.00 | 0.00 | 86 | 993.4 |